Fayetteville Regional Grannis Field
KFAY : now visible

Airfield :











YOU CAN JOIN US ON...

 
LOGIN :

Register | Disclaimer

   EN    FR    IT 

 









Legend :    VFR   Marginal VFR   IFR   Intensive IFR   Very Intensive IFR
Visi :
Ceiling :
>= 8 km
>= 3000ft
5 to 8 km
1000 to 3000 ft
1500m to 5 km
500 to 1000 ft
800 to 1500m
200 to 500 ft
< 800m
< 200 ft
Symbols :   Thunderstorms  Fog  Heavy snow  Heavy precipitations  Wind > 20 kt






- Airport Elevation : 189 ft
- IATA code : FAY


KFAY - Fayetteville Regional Grannis Field

CURRENT METAR :
  • 111053Z 30007KT 10SM FEW004 23/22 A2982 RMK AO2 SLP090 T02330217

EXPIRED METARs :
  • 111031Z 27009KT 10SM FEW004 23/22 A2981 RMK AO2 T02330217
  • 110953Z 25004KT 10SM CLR 23/22 A2980 RMK AO2 SLP084 T02330217
  • 110853Z 21006KT 10SM CLR 23/22 A2981 RMK AO2 SLP087 T02330217 58009

TAF KFAY
Valid from the 11 at 06:00 until the 12 at 06:00 UTC


110536Z 1106/1206 22006KT P6SM BKN050 BKN100
TEMPO 1106/1107 6SM -RA
FM111000 24003KT P6SM SCT050 SCT250
TEMPO 1110/1112 SCT006
FM111800 24008KT P6SM VCTS SCT050CB SCT250
PROB30 1119/1122 P6SM TS BKN050CB
KZDC FIR / North America



MET'MAP, your aeronautical weather chart ! - Copyright ORBIFLY December 2007 - Disclaimer

ORBIFLY MET'MAP TEAM :

Programming & Development : Alexandra Zaïnal
Concept & original design : Baudouin d'Aumeries
Assistance for programming : Marc-Olivier Méhu
Technical & hardware support : Manuel Goepfert

Contact : metmap@orbifly.com




SOURCES & CREDITS :

   NOAA       Earth
Advisory